sensor_id;sensor_type;location;lat;lon;timestamp;temperature;humidity
26051;DHT22;13825;53.496;10.020;2023-04-03T00:01:16;0.60;99.90
26051;DHT22;13825;53.496;10.020;2023-04-03T00:03:46;0.60;99.90
26051;DHT22;13825;53.496;10.020;2023-04-03T00:06:13;0.50;99.90
26051;DHT22;13825;53.496;10.020;2023-04-03T00:08:40;0.60;99.90
26051;DHT22;13825;53.496;10.020;2023-04-03T00:11:08;0.50;99.90
26051;DHT22;13825;53.496;10.020;2023-04-03T00:13:37;0.60;99.90
26051;DHT22;13825;53.496;10.020;2023-04-03T00:16:04;0.40;99.90
26051;DHT22;13825;53.496;10.020;2023-04-03T00:18:32;0.40;99.90
26051;DHT22;13825;53.496;10.020;2023-04-03T00:20:59;0.50;99.90
26051;DHT22;13825;53.496;10.020;2023-04-03T00:23:26;0.30;99.90
26051;DHT22;13825;53.496;10.020;2023-04-03T00:25:54;0.30;99.90
26051;DHT22;13825;53.496;10.020;2023-04-03T00:28:22;0.20;99.90
26051;DHT22;13825;53.496;10.020;2023-04-03T00:30:52;0.30;99.90
26051;DHT22;13825;53.496;10.020;2023-04-03T00:33:20;0.50;99.90
26051;DHT22;13825;53.496;10.020;2023-04-03T00:35:47;0.30;99.90
26051;DHT22;13825;53.496;10.020;2023-04-03T00:38:15;0.30;99.90
26051;DHT22;13825;53.496;10.020;2023-04-03T00:40:45;0.20;99.90
26051;DHT22;13825;53.496;10.020;2023-04-03T00:43:17;0.20;99.90
26051;DHT22;13825;53.496;10.020;2023-04-03T00:45:46;0.20;99.90
26051;DHT22;13825;53.496;10.020;2023-04-03T00:48:18;0.30;99.90
26051;DHT22;13825;53.496;10.020;2023-04-03T00:50:46;0.30;99.90
26051;DHT22;13825;53.496;10.020;2023-04-03T00:53:18;0.30;99.90
26051;DHT22;13825;53.496;10.020;2023-04-03T00:55:47;0.40;99.90
26051;DHT22;13825;53.496;10.020;2023-04-03T00:58:15;0.30;99.90
26051;DHT22;13825;53.496;10.020;2023-04-03T01:00:48;0.20;99.90
26051;DHT22;13825;53.496;10.020;2023-04-03T01:03:23;0.10;99.90
26051;DHT22;13825;53.496;10.020;2023-04-03T01:05:51;0.30;99.90
26051;DHT22;13825;53.496;10.020;2023-04-03T01:08:19;0.20;99.90
26051;DHT22;13825;53.496;10.020;2023-04-03T01:10:47;0.20;99.90
26051;DHT22;13825;53.496;10.020;2023-04-03T01:13:23;0.20;99.90
26051;DHT22;13825;53.496;10.020;2023-04-03T01:15:52;0.20;99.90
26051;DHT22;13825;53.496;10.020;2023-04-03T01:18:19;0.20;99.90
26051;DHT22;13825;53.496;10.020;2023-04-03T01:24:06;0.30;99.90
26051;DHT22;13825;53.496;10.020;2023-04-03T01:26:38;0.30;99.90
26051;DHT22;13825;53.496;10.020;2023-04-03T01:29:06;0.40;99.90
26051;DHT22;13825;53.496;10.020;2023-04-03T01:31:45;0.50;99.90
26051;DHT22;13825;53.496;10.020;2023-04-03T01:34:12;0.40;99.90
26051;DHT22;13825;53.496;10.020;2023-04-03T01:36:40;0.40;99.90
26051;DHT22;13825;53.496;10.020;2023-04-03T01:39:08;0.40;99.90
26051;DHT22;13825;53.496;10.020;2023-04-03T01:41:41;0.20;99.90
26051;DHT22;13825;53.496;10.020;2023-04-03T01:44:08;0.10;99.90
26051;DHT22;13825;53.496;10.020;2023-04-03T01:46:36;0.10;99.90
26051;DHT22;13825;53.496;10.020;2023-04-03T01:49:05;0.10;99.90
26051;DHT22;13825;53.496;10.020;2023-04-03T01:51:33;0.00;99.90
26051;DHT22;13825;53.496;10.020;2023-04-03T01:54:00;-0.10;99.90
26051;DHT22;13825;53.496;10.020;2023-04-03T01:56:27;-0.10;99.90
26051;DHT22;13825;53.496;10.020;2023-04-03T01:58:54;-0.20;99.90
26051;DHT22;13825;53.496;10.020;2023-04-03T02:01:22;-0.20;99.90
26051;DHT22;13825;53.496;10.020;2023-04-03T02:03:49;-0.20;99.90
26051;DHT22;13825;53.496;10.020;2023-04-03T02:06:17;-0.20;99.90
26051;DHT22;13825;53.496;10.020;2023-04-03T02:08:45;-0.40;99.90
26051;DHT22;13825;53.496;10.020;2023-04-03T02:11:15;-0.50;99.90
26051;DHT22;13825;53.496;10.020;2023-04-03T02:13:46;-0.50;99.90
26051;DHT22;13825;53.496;10.020;2023-04-03T02:16:14;-0.50;99.90
26051;DHT22;13825;53.496;10.020;2023-04-03T02:18:46;-0.70;99.90
26051;DHT22;13825;53.496;10.020;2023-04-03T02:21:13;-0.40;99.90
26051;DHT22;13825;53.496;10.020;2023-04-03T02:23:49;-0.60;99.90
26051;DHT22;13825;53.496;10.020;2023-04-03T02:26:21;-0.60;99.90
26051;DHT22;13825;53.496;10.020;2023-04-03T02:28:50;-0.60;99.90
26051;DHT22;13825;53.496;10.020;2023-04-03T02:31:19;-0.70;99.90
26051;DHT22;13825;53.496;10.020;2023-04-03T02:33:49;-0.70;99.90
26051;DHT22;13825;53.496;10.020;2023-04-03T02:36:20;-0.80;99.90
26051;DHT22;13825;53.496;10.020;2023-04-03T02:38:55;-0.80;99.90
26051;DHT22;13825;53.496;10.020;2023-04-03T02:41:25;-0.80;99.90
26051;DHT22;13825;53.496;10.020;2023-04-03T02:44:00;-0.70;99.90
26051;DHT22;13825;53.496;10.020;2023-04-03T02:46:31;-0.70;99.90
26051;DHT22;13825;53.496;10.020;2023-04-03T02:51:26;-0.80;99.90
26051;DHT22;13825;53.496;10.020;2023-04-03T02:53:55;-0.70;99.90
26051;DHT22;13825;53.496;10.020;2023-04-03T02:56:22;-0.60;99.90
26051;DHT22;13825;53.496;10.020;2023-04-03T02:58:52;-0.60;99.90
26051;DHT22;13825;53.496;10.020;2023-04-03T03:01:21;-0.50;99.90
26051;DHT22;13825;53.496;10.020;2023-04-03T03:03:54;-0.40;99.90
26051;DHT22;13825;53.496;10.020;2023-04-03T03:06:26;-0.30;99.90
26051;DHT22;13825;53.496;10.020;2023-04-03T03:08:58;-0.50;99.90
26051;DHT22;13825;53.496;10.020;2023-04-03T03:11:31;-0.40;99.90
26051;DHT22;13825;53.496;10.020;2023-04-03T03:13:58;-0.40;99.90
26051;DHT22;13825;53.496;10.020;2023-04-03T03:16:26;-0.40;99.90
26051;DHT22;13825;53.496;10.020;2023-04-03T03:18:53;-0.40;99.90
26051;DHT22;13825;53.496;10.020;2023-04-03T03:21:20;-0.60;99.90
26051;DHT22;13825;53.496;10.020;2023-04-03T03:23:47;-0.50;99.90
26051;DHT22;13825;53.496;10.020;2023-04-03T03:26:18;-0.40;99.90
26051;DHT22;13825;53.496;10.020;2023-04-03T03:28:45;-0.50;99.90
26051;DHT22;13825;53.496;10.020;2023-04-03T03:31:12;-0.60;99.90
26051;DHT22;13825;53.496;10.020;2023-04-03T03:33:40;-0.60;99.90
26051;DHT22;13825;53.496;10.020;2023-04-03T03:36:07;-0.70;99.90
26051;DHT22;13825;53.496;10.020;2023-04-03T03:38:34;-0.70;99.90
26051;DHT22;13825;53.496;10.020;2023-04-03T03:41:02;-0.80;99.90
26051;DHT22;13825;53.496;10.020;2023-04-03T03:43:31;-0.80;99.90
26051;DHT22;13825;53.496;10.020;2023-04-03T03:45:58;-0.80;99.90
26051;DHT22;13825;53.496;10.020;2023-04-03T03:48:26;-0.90;99.90
26051;DHT22;13825;53.496;10.020;2023-04-03T03:50:57;-0.90;99.90
26051;DHT22;13825;53.496;10.020;2023-04-03T03:53:25;-1.00;99.90
26051;DHT22;13825;53.496;10.020;2023-04-03T03:55:52;-1.00;99.90
26051;DHT22;13825;53.496;10.020;2023-04-03T03:58:20;-1.00;99.90
26051;DHT22;13825;53.496;10.020;2023-04-03T04:00:49;-1.10;99.90
26051;DHT22;13825;53.496;10.020;2023-04-03T04:03:16;-1.10;99.90
26051;DHT22;13825;53.496;10.020;2023-04-03T04:05:43;-1.20;99.90
26051;DHT22;13825;53.496;10.020;2023-04-03T04:08:12;-1.20;99.90
26051;DHT22;13825;53.496;10.020;2023-04-03T04:10:39;-1.30;99.90
26051;DHT22;13825;53.496;10.020;2023-04-03T04:13:09;-1.30;99.90
26051;DHT22;13825;53.496;10.020;2023-04-03T04:15:36;-1.30;99.90
26051;DHT22;13825;53.496;10.020;2023-04-03T04:18:05;-1.30;99.90
26051;DHT22;13825;53.496;10.020;2023-04-03T04:20:32;-1.40;99.90
26051;DHT22;13825;53.496;10.020;2023-04-03T04:23:00;-1.50;99.90
26051;DHT22;13825;53.496;10.020;2023-04-03T04:25:39;-1.60;99.90
26051;DHT22;13825;53.496;10.020;2023-04-03T04:28:07;-1.70;99.90
26051;DHT22;13825;53.496;10.020;2023-04-03T04:30:35;-1.70;99.90
26051;DHT22;13825;53.496;10.020;2023-04-03T04:33:02;-1.70;99.90
26051;DHT22;13825;53.496;10.020;2023-04-03T04:35:35;-1.70;99.90
26051;DHT22;13825;53.496;10.020;2023-04-03T04:38:03;-1.70;99.90
26051;DHT22;13825;53.496;10.020;2023-04-03T04:40:34;-1.80;99.90
26051;DHT22;13825;53.496;10.020;2023-04-03T04:43:03;-1.80;99.90
26051;DHT22;13825;53.496;10.020;2023-04-03T04:45:30;-1.80;99.90
26051;DHT22;13825;53.496;10.020;2023-04-03T04:47:57;-1.80;99.90
26051;DHT22;13825;53.496;10.020;2023-04-03T04:50:27;-1.90;99.90
26051;DHT22;13825;53.496;10.020;2023-04-03T04:52:56;-1.90;99.90
26051;DHT22;13825;53.496;10.020;2023-04-03T04:55:28;-1.90;99.90
26051;DHT22;13825;53.496;10.020;2023-04-03T04:57:59;-1.90;99.90
26051;DHT22;13825;53.496;10.020;2023-04-03T05:00:27;-2.00;99.90
26051;DHT22;13825;53.496;10.020;2023-04-03T05:02:54;-2.00;99.90
26051;DHT22;13825;53.496;10.020;2023-04-03T05:05:21;-2.00;99.90
26051;DHT22;13825;53.496;10.020;2023-04-03T05:07:49;-1.80;99.90
26051;DHT22;13825;53.496;10.020;2023-04-03T05:10:18;-1.90;99.90
26051;DHT22;13825;53.496;10.020;2023-04-03T05:12:46;-1.90;99.90
26051;DHT22;13825;53.496;10.020;2023-04-03T05:15:20;-1.90;99.90
26051;DHT22;13825;53.496;10.020;2023-04-03T05:17:47;-1.80;99.90
26051;DHT22;13825;53.496;10.020;2023-04-03T05:20:17;-1.80;99.90
26051;DHT22;13825;53.496;10.020;2023-04-03T05:22:47;-1.80;99.90
26051;DHT22;13825;53.496;10.020;2023-04-03T05:25:14;-1.80;99.90
26051;DHT22;13825;53.496;10.020;2023-04-03T05:27:45;-1.80;99.90
26051;DHT22;13825;53.496;10.020;2023-04-03T05:30:13;-1.80;99.90
26051;DHT22;13825;53.496;10.020;2023-04-03T05:32:43;-1.70;99.90
26051;DHT22;13825;53.496;10.020;2023-04-03T05:35:11;-1.60;99.90
26051;DHT22;13825;53.496;10.020;2023-04-03T05:37:44;-1.60;99.90
26051;DHT22;13825;53.496;10.020;2023-04-03T05:40:14;-1.40;99.90
26051;DHT22;13825;53.496;10.020;2023-04-03T05:42:45;-1.60;99.90
26051;DHT22;13825;53.496;10.020;2023-04-03T05:45:18;-1.40;99.90
26051;DHT22;13825;53.496;10.020;2023-04-03T05:47:54;-1.30;99.90
26051;DHT22;13825;53.496;10.020;2023-04-03T05:50:24;-1.20;99.90
26051;DHT22;13825;53.496;10.020;2023-04-03T05:52:52;-1.20;99.90
26051;DHT22;13825;53.496;10.020;2023-04-03T05:55:22;-1.10;99.90
26051;DHT22;13825;53.496;10.020;2023-04-03T05:57:51;-0.90;99.90
26051;DHT22;13825;53.496;10.020;2023-04-03T06:00:19;-0.90;99.90
26051;DHT22;13825;53.496;10.020;2023-04-03T06:02:46;-0.80;99.90
26051;DHT22;13825;53.496;10.020;2023-04-03T06:05:14;-0.70;99.90
26051;DHT22;13825;53.496;10.020;2023-04-03T06:07:41;-0.60;99.90
26051;DHT22;13825;53.496;10.020;2023-04-03T06:10:12;-0.50;99.90
26051;DHT22;13825;53.496;10.020;2023-04-03T06:12:40;-0.20;99.90
26051;DHT22;13825;53.496;10.020;2023-04-03T06:15:09;0.10;99.90
26051;DHT22;13825;53.496;10.020;2023-04-03T06:17:37;0.20;99.90
26051;DHT22;13825;53.496;10.020;2023-04-03T06:20:08;0.40;99.90
26051;DHT22;13825;53.496;10.020;2023-04-03T06:22:35;0.70;99.90
26051;DHT22;13825;53.496;10.020;2023-04-03T06:25:03;0.90;99.90
26051;DHT22;13825;53.496;10.020;2023-04-03T06:27:30;1.10;99.90
26051;DHT22;13825;53.496;10.020;2023-04-03T06:29:57;1.20;99.90
26051;DHT22;13825;53.496;10.020;2023-04-03T06:32:26;1.40;99.90
26051;DHT22;13825;53.496;10.020;2023-04-03T06:34:53;1.50;99.90
26051;DHT22;13825;53.496;10.020;2023-04-03T06:37:22;1.60;99.90
26051;DHT22;13825;53.496;10.020;2023-04-03T06:39:51;1.80;99.90
26051;DHT22;13825;53.496;10.020;2023-04-03T06:42:21;2.00;99.90
26051;DHT22;13825;53.496;10.020;2023-04-03T06:44:49;2.00;99.90
26051;DHT22;13825;53.496;10.020;2023-04-03T06:47:19;2.10;99.90
26051;DHT22;13825;53.496;10.020;2023-04-03T06:49:48;2.20;99.90
26051;DHT22;13825;53.496;10.020;2023-04-03T06:52:15;2.30;99.90
26051;DHT22;13825;53.496;10.020;2023-04-03T06:54:42;2.50;99.90
26051;DHT22;13825;53.496;10.020;2023-04-03T06:57:10;2.60;99.90
26051;DHT22;13825;53.496;10.020;2023-04-03T06:59:37;2.70;99.90
26051;DHT22;13825;53.496;10.020;2023-04-03T07:02:04;2.80;99.90
26051;DHT22;13825;53.496;10.020;2023-04-03T07:04:31;2.90;99.90
26051;DHT22;13825;53.496;10.020;2023-04-03T07:07:07;2.90;99.90
26051;DHT22;13825;53.496;10.020;2023-04-03T07:09:37;2.90;99.90
26051;DHT22;13825;53.496;10.020;2023-04-03T07:12:06;3.00;99.90
26051;DHT22;13825;53.496;10.020;2023-04-03T07:14:34;3.10;99.90
26051;DHT22;13825;53.496;10.020;2023-04-03T07:17:01;3.20;99.90
26051;DHT22;13825;53.496;10.020;2023-04-03T07:19:33;3.30;99.90
26051;DHT22;13825;53.496;10.020;2023-04-03T07:22:00;3.60;99.90
26051;DHT22;13825;53.496;10.020;2023-04-03T07:24:29;3.50;99.90
26051;DHT22;13825;53.496;10.020;2023-04-03T07:26:56;3.70;99.90
26051;DHT22;13825;53.496;10.020;2023-04-03T07:29:23;3.60;99.90
26051;DHT22;13825;53.496;10.020;2023-04-03T07:31:51;3.50;99.90
26051;DHT22;13825;53.496;10.020;2023-04-03T07:34:18;3.60;99.90
26051;DHT22;13825;53.496;10.020;2023-04-03T07:36:49;3.70;99.90
26051;DHT22;13825;53.496;10.020;2023-04-03T07:39:22;3.80;99.20
26051;DHT22;13825;53.496;10.020;2023-04-03T07:41:52;3.90;97.50
26051;DHT22;13825;53.496;10.020;2023-04-03T07:44:24;4.00;97.00
26051;DHT22;13825;53.496;10.020;2023-04-03T07:46:51;4.10;96.50
26051;DHT22;13825;53.496;10.020;2023-04-03T07:49:21;4.30;96.80
26051;DHT22;13825;53.496;10.020;2023-04-03T07:51:51;4.30;96.30
26051;DHT22;13825;53.496;10.020;2023-04-03T07:54:19;4.40;94.80
26051;DHT22;13825;53.496;10.020;2023-04-03T07:56:46;4.30;94.70
26051;DHT22;13825;53.496;10.020;2023-04-03T07:59:15;4.50;94.50
26051;DHT22;13825;53.496;10.020;2023-04-03T08:01:43;4.50;94.10
26051;DHT22;13825;53.496;10.020;2023-04-03T08:04:16;4.50;92.90
26051;DHT22;13825;53.496;10.020;2023-04-03T08:06:46;4.60;92.60
26051;DHT22;13825;53.496;10.020;2023-04-03T08:09:14;4.70;91.90
26051;DHT22;13825;53.496;10.020;2023-04-03T08:11:41;4.70;91.40
26051;DHT22;13825;53.496;10.020;2023-04-03T08:14:08;4.90;92.30
26051;DHT22;13825;53.496;10.020;2023-04-03T08:16:42;4.90;91.10
26051;DHT22;13825;53.496;10.020;2023-04-03T08:19:19;5.00;91.80
26051;DHT22;13825;53.496;10.020;2023-04-03T18:55:22;3.30;38.90
26051;DHT22;13825;53.496;10.020;2023-04-03T18:57:52;3.10;43.00
26051;DHT22;13825;53.496;10.020;2023-04-03T19:00:21;3.00;45.80
26051;DHT22;13825;53.496;10.020;2023-04-03T19:02:51;2.90;48.40
26051;DHT22;13825;53.496;10.020;2023-04-03T19:05:21;2.90;49.50
26051;DHT22;13825;53.496;10.020;2023-04-03T19:07:52;2.80;52.10
26051;DHT22;13825;53.496;10.020;2023-04-03T19:10:23;2.90;54.70
26051;DHT22;13825;53.496;10.020;2023-04-03T19:12:52;2.80;57.40
26051;DHT22;13825;53.496;10.020;2023-04-03T19:15:21;2.50;57.10
26051;DHT22;13825;53.496;10.020;2023-04-03T19:17:49;2.40;61.80
26051;DHT22;13825;53.496;10.020;2023-04-03T19:20:19;2.30;64.60
26051;DHT22;13825;53.496;10.020;2023-04-03T19:22:48;2.20;65.80
26051;DHT22;13825;53.496;10.020;2023-04-03T19:25:15;2.10;68.30
26051;DHT22;13825;53.496;10.020;2023-04-03T19:27:44;2.00;70.50
26051;DHT22;13825;53.496;10.020;2023-04-03T19:30:21;1.90;71.00
26051;DHT22;13825;53.496;10.020;2023-04-03T19:32:56;1.90;72.70
26051;DHT22;13825;53.496;10.020;2023-04-03T19:35:28;1.80;74.00
26051;DHT22;13825;53.496;10.020;2023-04-03T19:38:01;1.90;76.20
26051;DHT22;13825;53.496;10.020;2023-04-03T19:40:41;1.90;75.80
26051;DHT22;13825;53.496;10.020;2023-04-03T19:43:13;1.90;77.80
26051;DHT22;13825;53.496;10.020;2023-04-03T19:45:45;1.90;77.80
26051;DHT22;13825;53.496;10.020;2023-04-03T19:48:23;1.70;78.40
26051;DHT22;13825;53.496;10.020;2023-04-03T19:50:51;1.70;78.90
26051;DHT22;13825;53.496;10.020;2023-04-03T19:53:21;1.90;79.50
26051;DHT22;13825;53.496;10.020;2023-04-03T19:56:05;1.80;80.20
26051;DHT22;13825;53.496;10.020;2023-04-03T19:58:40;1.70;81.90
26051;DHT22;13825;53.496;10.020;2023-04-03T20:01:09;1.70;82.00
26051;DHT22;13825;53.496;10.020;2023-04-03T20:03:39;1.50;82.40
26051;DHT22;13825;53.496;10.020;2023-04-03T20:09:30;1.40;84.60
26051;DHT22;13825;53.496;10.020;2023-04-03T20:11:58;1.40;85.30
26051;DHT22;13825;53.496;10.020;2023-04-03T20:14:28;1.40;85.50
26051;DHT22;13825;53.496;10.020;2023-04-03T20:16:56;1.40;85.80
26051;DHT22;13825;53.496;10.020;2023-04-03T20:19:23;1.50;86.50
26051;DHT22;13825;53.496;10.020;2023-04-03T20:21:54;1.30;87.80
26051;DHT22;13825;53.496;10.020;2023-04-03T20:24:23;1.40;87.00
26051;DHT22;13825;53.496;10.020;2023-04-03T20:26:53;1.30;87.80
26051;DHT22;13825;53.496;10.020;2023-04-03T20:29:21;1.30;87.40
26051;DHT22;13825;53.496;10.020;2023-04-03T20:31:53;1.20;87.00
26051;DHT22;13825;53.496;10.020;2023-04-03T20:34:23;1.20;86.50
26051;DHT22;13825;53.496;10.020;2023-04-03T20:36:53;1.20;86.60
26051;DHT22;13825;53.496;10.020;2023-04-03T20:39:27;1.20;86.40
26051;DHT22;13825;53.496;10.020;2023-04-03T20:42:03;1.10;86.90
26051;DHT22;13825;53.496;10.020;2023-04-03T20:44:36;1.00;88.10
26051;DHT22;13825;53.496;10.020;2023-04-03T20:52:32;0.80;88.00
26051;DHT22;13825;53.496;10.020;2023-04-03T20:55:01;0.70;87.70
26051;DHT22;13825;53.496;10.020;2023-04-03T20:57:33;0.60;88.40
26051;DHT22;13825;53.496;10.020;2023-04-03T21:00:02;0.60;88.90
26051;DHT22;13825;53.496;10.020;2023-04-03T21:02:42;0.50;90.20
26051;DHT22;13825;53.496;10.020;2023-04-03T21:05:13;0.50;90.30
26051;DHT22;13825;53.496;10.020;2023-04-03T21:19:31;0.50;88.60
26051;DHT22;13825;53.496;10.020;2023-04-03T21:22:10;0.70;87.80
26051;DHT22;13825;53.496;10.020;2023-04-03T21:24:41;0.60;86.20
26051;DHT22;13825;53.496;10.020;2023-04-03T21:27:12;0.50;85.10
26051;DHT22;13825;53.496;10.020;2023-04-03T21:29:40;0.70;82.00
26051;DHT22;13825;53.496;10.020;2023-04-03T21:32:08;0.80;80.60
26051;DHT22;13825;53.496;10.020;2023-04-03T21:34:36;0.70;79.40
26051;DHT22;13825;53.496;10.020;2023-04-03T21:37:05;0.80;78.90
26051;DHT22;13825;53.496;10.020;2023-04-03T21:39:33;0.90;76.60
26051;DHT22;13825;53.496;10.020;2023-04-03T21:42:06;0.80;74.10
26051;DHT22;13825;53.496;10.020;2023-04-03T21:44:42;0.90;72.20
26051;DHT22;13825;53.496;10.020;2023-04-03T21:47:09;0.90;72.20
26051;DHT22;13825;53.496;10.020;2023-04-03T21:49:43;0.90;69.90
26051;DHT22;13825;53.496;10.020;2023-04-03T21:52:12;1.00;65.10
26051;DHT22;13825;53.496;10.020;2023-04-03T21:54:41;1.10;66.60
26051;DHT22;13825;53.496;10.020;2023-04-03T21:57:12;1.10;62.60
26051;DHT22;13825;53.496;10.020;2023-04-03T21:59:40;1.10;64.00
26051;DHT22;13825;53.496;10.020;2023-04-03T22:02:08;1.00;64.40
26051;DHT22;13825;53.496;10.020;2023-04-03T22:04:35;1.10;63.10
26051;DHT22;13825;53.496;10.020;2023-04-03T22:07:04;1.20;62.70
26051;DHT22;13825;53.496;10.020;2023-04-03T22:09:32;1.10;60.90
26051;DHT22;13825;53.496;10.020;2023-04-03T22:11:59;1.20;58.20
26051;DHT22;13825;53.496;10.020;2023-04-03T22:14:28;1.20;57.80
26051;DHT22;13825;53.496;10.020;2023-04-03T22:16:56;1.20;56.40
26051;DHT22;13825;53.496;10.020;2023-04-03T22:19:23;1.20;58.00
26051;DHT22;13825;53.496;10.020;2023-04-03T22:21:56;1.20;53.60
26051;DHT22;13825;53.496;10.020;2023-04-03T22:24:30;1.10;50.80
26051;DHT22;13825;53.496;10.020;2023-04-03T22:27:01;1.10;50.20
26051;DHT22;13825;53.496;10.020;2023-04-03T22:29:31;0.90;50.50
26051;DHT22;13825;53.496;10.020;2023-04-03T22:31:58;0.90;53.10
26051;DHT22;13825;53.496;10.020;2023-04-03T22:34:29;0.80;51.10
26051;DHT22;13825;53.496;10.020;2023-04-03T22:36:56;0.70;51.70
26051;DHT22;13825;53.496;10.020;2023-04-03T22:39:28;0.80;49.70
26051;DHT22;13825;53.496;10.020;2023-04-03T22:41:56;0.80;51.70
26051;DHT22;13825;53.496;10.020;2023-04-03T22:44:27;0.70;55.00
26051;DHT22;13825;53.496;10.020;2023-04-03T22:47:14;0.60;57.60
26051;DHT22;13825;53.496;10.020;2023-04-03T22:49:42;0.40;59.40
26051;DHT22;13825;53.496;10.020;2023-04-03T22:52:10;0.20;63.90
26051;DHT22;13825;53.496;10.020;2023-04-03T23:24:27;0.10;64.70
26051;DHT22;13825;53.496;10.020;2023-04-03T23:26:57;-1.00;89.30
26051;DHT22;13825;53.496;10.020;2023-04-03T23:29:29;-1.00;89.80
26051;DHT22;13825;53.496;10.020;2023-04-03T23:32:00;-1.10;90.50
26051;DHT22;13825;53.496;10.020;2023-04-03T23:34:27;-1.10;90.30
26051;DHT22;13825;53.496;10.020;2023-04-03T23:36:57;-1.10;90.20
26051;DHT22;13825;53.496;10.020;2023-04-03T23:39:26;-0.90;91.00
26051;DHT22;13825;53.496;10.020;2023-04-03T23:41:53;-1.00;90.30
26051;DHT22;13825;53.496;10.020;2023-04-03T23:44:35;-1.00;89.60
26051;DHT22;13825;53.496;10.020;2023-04-03T23:47:03;-0.80;90.10
26051;DHT22;13825;53.496;10.020;2023-04-03T23:49:30;-0.70;89.20
26051;DHT22;13825;53.496;10.020;2023-04-03T23:51:57;-0.70;89.60
26051;DHT22;13825;53.496;10.020;2023-04-03T23:54:26;-0.60;89.40
26051;DHT22;13825;53.496;10.020;2023-04-03T23:56:55;-0.50;88.90
26051;DHT22;13825;53.496;10.020;2023-04-03T23:59:27;-0.60;88.60
